createdAt,value
2023-03-24T00:00:25.922Z,0.90
2023-03-24T00:02:52.793Z,0.88
2023-03-24T00:05:22.347Z,0.90
2023-03-24T00:07:54.555Z,0.75
2023-03-24T00:10:22.821Z,0.90
2023-03-24T00:12:50.672Z,0.90
2023-03-24T00:15:21.422Z,0.90
2023-03-24T00:17:52.534Z,0.85
2023-03-24T00:20:22.297Z,0.90
2023-03-24T00:22:56.965Z,0.85
2023-03-24T00:25:29.798Z,0.70
2023-03-24T00:27:57.734Z,0.88
2023-03-24T00:30:26.106Z,0.70
2023-03-24T00:32:54.003Z,0.75
2023-03-24T00:35:21.913Z,0.90
2023-03-24T00:37:52.072Z,0.82
2023-03-24T00:40:21.107Z,0.90
2023-03-24T00:42:49.776Z,0.80
2023-03-24T00:45:23.406Z,0.77
2023-03-24T00:47:54.055Z,0.80
2023-03-24T00:50:27.193Z,0.90
2023-03-24T00:52:56.095Z,0.80
2023-03-24T00:55:23.323Z,0.80
2023-03-24T00:57:51.225Z,0.75
2023-03-24T01:00:24.755Z,0.93
2023-03-24T01:02:55.664Z,1.00
2023-03-24T01:05:28.468Z,0.80
2023-03-24T01:08:03.852Z,0.90
2023-03-24T01:10:35.279Z,0.68
2023-03-24T01:13:02.537Z,0.80
2023-03-24T01:15:33.390Z,0.90
2023-03-24T01:18:03.400Z,1.00
2023-03-24T01:20:35.470Z,1.02
2023-03-24T01:23:07.849Z,0.70
2023-03-24T01:25:37.193Z,0.70
2023-03-24T01:30:31.905Z,0.68
2023-03-24T01:32:58.949Z,0.85
2023-03-24T01:35:28.947Z,0.80
2023-03-24T01:37:56.675Z,0.70
2023-03-24T01:40:28.213Z,0.80
2023-03-24T01:42:55.688Z,1.10
2023-03-24T01:45:56.424Z,0.90
2023-03-24T01:48:53.168Z,0.68
2023-03-24T01:51:37.052Z,1.10
2023-03-24T01:54:21.975Z,0.70
2023-03-24T01:57:14.201Z,0.73
2023-03-24T01:59:47.062Z,0.80
2023-03-24T02:02:36.281Z,0.95
2023-03-24T02:05:08.934Z,0.80
2023-03-24T02:08:11.452Z,1.00
2023-03-24T02:10:39.350Z,0.90
2023-03-24T02:13:07.602Z,1.00
2023-03-24T02:15:42.466Z,1.00
2023-03-24T02:18:25.749Z,1.00
2023-03-24T02:21:11.677Z,0.85
2023-03-24T02:23:44.348Z,0.75
2023-03-24T02:26:13.987Z,1.10
2023-03-24T02:28:57.910Z,1.17
2023-03-24T02:31:43.498Z,0.82
2023-03-24T02:34:27.392Z,0.90
2023-03-24T02:37:12.912Z,0.90
2023-03-24T02:39:48.837Z,1.00
2023-03-24T02:42:34.404Z,0.80
2023-03-24T02:45:18.188Z,1.05
2023-03-24T02:47:47.759Z,0.82
2023-03-24T02:50:21.770Z,0.90
2023-03-24T02:52:57.123Z,1.00
2023-03-24T02:55:29.679Z,0.85
2023-03-24T02:58:03.182Z,1.10
2023-03-24T03:00:59.531Z,0.90
2023-03-24T03:03:50.663Z,1.02
2023-03-24T03:06:27.734Z,1.00
2023-03-24T03:08:59.072Z,0.95
2023-03-24T03:11:26.001Z,0.90
2023-03-24T03:14:03.838Z,1.00
2023-03-24T03:16:43.439Z,1.05
2023-03-24T03:19:20.628Z,0.85
2023-03-24T03:21:50.042Z,0.88
2023-03-24T03:24:29.658Z,1.10
2023-03-24T03:27:03.133Z,0.85
2023-03-24T03:29:37.273Z,1.00
2023-03-24T03:32:10.140Z,0.80
2023-03-24T03:34:50.254Z,1.10
2023-03-24T03:37:26.501Z,1.08
2023-03-24T03:40:09.548Z,0.98
2023-03-24T03:42:40.147Z,1.13
2023-03-24T03:45:11.304Z,0.90
2023-03-24T03:47:39.412Z,0.90
2023-03-24T03:50:09.009Z,0.95
2023-03-24T03:52:39.031Z,0.90
2023-03-24T03:55:07.700Z,0.80
2023-03-24T03:57:36.245Z,1.00
2023-03-24T04:00:19.966Z,0.85
2023-03-24T04:03:26.800Z,0.90
2023-03-24T04:06:31.916Z,0.82
2023-03-24T04:09:18.032Z,0.82
2023-03-24T04:11:51.039Z,0.90
2023-03-24T04:15:02.086Z,0.90
2023-03-24T04:17:37.731Z,1.02
2023-03-24T04:20:17.359Z,0.90
2023-03-24T04:23:14.934Z,0.90
2023-03-24T04:26:01.601Z,0.90
2023-03-24T04:28:35.031Z,0.80
2023-03-24T04:31:07.424Z,1.00
2023-03-24T04:34:03.144Z,0.82
2023-03-24T04:36:42.716Z,0.80
2023-03-24T04:39:38.840Z,0.80
2023-03-24T04:42:13.992Z,0.85
2023-03-24T04:44:41.952Z,0.73
2023-03-24T04:47:47.935Z,0.75
2023-03-24T04:50:38.461Z,0.90
2023-03-24T04:53:10.686Z,0.90
2023-03-24T04:55:50.599Z,0.70
2023-03-24T04:58:49.479Z,0.70
2023-03-24T05:01:17.273Z,0.63
2023-03-24T05:03:55.465Z,0.90
2023-03-24T05:06:22.482Z,1.15
2023-03-24T05:08:49.218Z,0.70
2023-03-24T05:11:16.233Z,0.82
2023-03-24T05:13:51.573Z,0.80
2023-03-24T05:16:18.339Z,1.00
2023-03-24T05:18:56.342Z,0.73
2023-03-24T05:21:23.297Z,0.80
2023-03-24T05:23:50.168Z,0.80
2023-03-24T05:26:17.004Z,1.00
2023-03-24T05:29:04.500Z,0.80
2023-03-24T05:31:31.390Z,0.93
2023-03-24T05:34:07.131Z,0.90
2023-03-24T05:36:43.619Z,0.60
2023-03-24T05:39:11.861Z,0.90
2023-03-24T05:41:48.666Z,0.80
2023-03-24T05:44:15.654Z,0.70
2023-03-24T05:46:51.172Z,1.15
2023-03-24T05:49:18.195Z,0.82
2023-03-24T05:51:44.872Z,0.98
2023-03-24T05:54:11.540Z,0.80
2023-03-24T05:56:43.096Z,0.88
2023-03-24T05:59:11.571Z,0.90
2023-03-24T06:01:56.810Z,0.90
2023-03-24T06:04:57.630Z,0.80
2023-03-24T06:07:26.907Z,0.80
2023-03-24T06:09:57.997Z,0.82
2023-03-24T06:12:25.253Z,0.73
2023-03-24T06:14:56.044Z,0.90
2023-03-24T06:17:24.877Z,0.68
2023-03-24T06:20:02.849Z,0.70
2023-03-24T06:22:59.172Z,0.98
2023-03-24T06:25:33.617Z,0.82
2023-03-24T06:28:26.032Z,1.08
2023-03-24T06:30:56.535Z,0.77
2023-03-24T06:33:30.926Z,0.73
2023-03-24T06:36:01.812Z,0.73
2023-03-24T06:38:30.496Z,0.80
2023-03-24T06:41:01.537Z,0.93
2023-03-24T06:43:29.052Z,0.60
2023-03-24T06:45:56.325Z,0.70
2023-03-24T06:48:24.968Z,0.82
2023-03-24T06:50:58.552Z,0.88
2023-03-24T06:53:25.343Z,0.70
2023-03-24T06:55:52.266Z,0.80
2023-03-24T06:58:21.353Z,0.60
2023-03-24T07:01:07.179Z,0.80
2023-03-24T07:06:16.576Z,0.68
2023-03-24T07:08:44.925Z,0.80
2023-03-24T07:11:12.073Z,0.70
2023-03-24T07:13:45.831Z,0.70
2023-03-24T07:16:12.619Z,0.70
2023-03-24T07:18:41.133Z,0.83
2023-03-24T07:21:08.470Z,0.65
2023-03-24T07:23:36.628Z,0.73
2023-03-24T07:26:09.857Z,0.90
2023-03-24T07:28:50.104Z,1.02
2023-03-24T07:34:02.014Z,1.05
2023-03-24T07:36:29.266Z,1.00
2023-03-24T07:38:57.414Z,0.90
2023-03-24T07:41:31.398Z,1.25
2023-03-24T07:44:02.696Z,1.05
2023-03-24T07:46:52.768Z,1.20
2023-03-24T07:49:21.477Z,0.80
2023-03-24T07:52:01.774Z,0.88
2023-03-24T07:54:36.602Z,1.10
2023-03-24T07:57:03.662Z,1.10
2023-03-24T07:59:30.701Z,0.90
2023-03-24T08:02:29.636Z,0.90
2023-03-24T08:05:20.632Z,0.90
2023-03-24T08:08:08.246Z,1.02
2023-03-24T08:10:35.237Z,0.90
2023-03-24T08:13:02.605Z,0.80
2023-03-24T08:15:29.986Z,0.98
2023-03-24T08:17:57.259Z,1.05
2023-03-24T08:20:27.103Z,1.02
2023-03-24T08:22:54.761Z,0.98
2023-03-24T08:25:24.843Z,1.00
2023-03-24T08:27:52.172Z,1.02
2023-03-24T08:30:24.934Z,1.02
2023-03-24T08:32:54.842Z,0.82
2023-03-24T08:35:26.112Z,0.93
2023-03-24T08:37:53.209Z,0.80
2023-03-24T08:40:23.947Z,1.30
2023-03-24T08:42:53.624Z,1.13
2023-03-24T08:45:22.230Z,1.15
2023-03-24T08:47:52.126Z,1.43
2023-03-24T08:50:25.984Z,0.90
2023-03-24T08:52:52.854Z,1.00
2023-03-24T08:55:21.411Z,0.98
2023-03-24T08:57:48.835Z,1.00
2023-03-24T09:00:16.692Z,1.15
2023-03-24T09:02:45.533Z,1.02
2023-03-24T09:05:13.358Z,0.77
2023-03-24T09:07:39.959Z,0.93
2023-03-24T09:10:08.130Z,1.15
2023-03-24T09:12:38.597Z,1.27
2023-03-24T09:15:07.434Z,1.00
2023-03-24T09:17:35.188Z,1.10
2023-03-24T09:20:08.375Z,1.10
2023-03-24T09:22:56.137Z,1.20
2023-03-24T09:25:22.971Z,1.15
2023-03-24T09:27:50.389Z,0.85
2023-03-24T09:30:18.490Z,1.20
2023-03-24T09:32:46.084Z,1.00
2023-03-24T09:35:13.659Z,1.02
2023-03-24T09:37:43.122Z,1.10
2023-03-24T09:40:21.472Z,1.00
2023-03-24T09:42:54.881Z,1.10
2023-03-24T09:45:23.968Z,1.10
2023-03-24T09:47:58.654Z,1.10
2023-03-24T09:50:41.098Z,1.20
2023-03-24T09:53:32.320Z,1.13
2023-03-24T09:56:07.291Z,1.25
2023-03-24T09:58:34.161Z,1.20
2023-03-24T10:01:01.224Z,1.60
2023-03-24T10:03:28.059Z,1.13
2023-03-24T10:06:08.133Z,1.17
2023-03-24T10:08:42.261Z,1.02
2023-03-24T10:11:18.960Z,0.90
2023-03-24T10:14:12.758Z,1.10
2023-03-24T10:16:57.984Z,0.98
2023-03-24T10:19:30.918Z,0.90
2023-03-24T10:22:09.352Z,1.40
2023-03-24T10:24:37.857Z,1.17
2023-03-24T10:27:10.382Z,1.10
2023-03-24T10:29:38.706Z,1.13
2023-03-24T10:32:22.415Z,1.30
2023-03-24T10:34:55.470Z,1.38
2023-03-24T10:37:22.216Z,1.17
2023-03-24T10:39:49.620Z,0.98
2023-03-24T10:42:21.934Z,1.20
2023-03-24T10:44:50.993Z,1.02
2023-03-24T10:47:24.248Z,1.30
2023-03-24T10:50:14.165Z,1.35
2023-03-24T10:52:46.485Z,1.38
2023-03-24T10:55:19.346Z,1.10
2023-03-24T10:57:53.671Z,1.20
2023-03-24T11:00:24.559Z,1.20
2023-03-24T11:03:00.789Z,1.10
2023-03-24T11:05:39.258Z,1.10
2023-03-24T11:08:28.605Z,1.23
2023-03-24T11:10:56.088Z,1.45
2023-03-24T11:13:23.013Z,1.23
2023-03-24T11:16:05.549Z,1.23
2023-03-24T11:18:32.531Z,1.02
2023-03-24T11:21:04.349Z,1.20
2023-03-24T11:23:32.409Z,1.20
2023-03-24T11:26:30.008Z,1.23
2023-03-24T11:29:00.156Z,1.00
2023-03-24T11:31:38.326Z,0.85
2023-03-24T11:34:20.046Z,0.82
2023-03-24T11:36:59.667Z,1.27
2023-03-24T11:39:29.100Z,0.85
2023-03-24T11:44:37.944Z,1.08
2023-03-24T11:47:11.845Z,0.93
2023-03-24T11:50:04.469Z,1.27
2023-03-24T11:52:55.580Z,1.00
2023-03-24T11:55:32.280Z,1.02
2023-03-24T11:58:10.784Z,1.30
2023-03-24T12:00:46.741Z,1.10
2023-03-24T12:03:19.898Z,0.90
2023-03-24T12:06:17.033Z,0.93
2023-03-24T12:08:54.409Z,1.20
2023-03-24T12:11:50.375Z,1.20
2023-03-24T12:14:30.765Z,0.98
2023-03-24T12:17:14.844Z,1.17
2023-03-24T12:20:05.691Z,1.30
2023-03-24T12:25:38.468Z,0.95
2023-03-24T12:28:11.718Z,1.05
2023-03-24T12:30:54.003Z,1.00
2023-03-24T12:33:24.103Z,1.13
2023-03-24T12:36:31.740Z,1.77
2023-03-24T12:39:12.897Z,0.90
2023-03-24T12:41:55.308Z,0.90
2023-03-24T12:44:58.798Z,0.90
2023-03-24T12:47:41.664Z,0.88
2023-03-24T12:50:23.695Z,0.90
2023-03-24T12:52:58.032Z,1.02
2023-03-24T12:55:46.871Z,0.98
2023-03-24T12:58:26.873Z,0.77
2023-03-24T13:01:01.276Z,0.98
2023-03-24T13:03:39.501Z,0.90
2023-03-24T13:06:32.980Z,0.75
2023-03-24T13:09:37.048Z,1.00
2023-03-24T13:12:13.625Z,0.80
2023-03-24T13:15:00.381Z,0.80
2023-03-24T13:17:51.038Z,0.70
2023-03-24T13:20:33.060Z,0.90
2023-03-24T13:23:19.623Z,0.60
2023-03-24T13:26:08.942Z,0.90
2023-03-24T13:28:44.745Z,0.80
2023-03-24T13:31:14.021Z,1.00
2023-03-24T13:36:32.628Z,0.98
2023-03-24T13:39:08.319Z,0.90
2023-03-24T13:41:39.874Z,0.63
2023-03-24T13:44:29.763Z,0.90
2023-03-24T13:47:15.198Z,0.88
2023-03-24T13:49:59.574Z,0.60
2023-03-24T13:52:32.941Z,0.90
2023-03-24T13:55:02.786Z,0.80
2023-03-24T13:57:30.161Z,0.73
2023-03-24T14:00:12.269Z,0.93
2023-03-24T14:02:50.380Z,0.68
2023-03-24T14:05:23.986Z,0.63
2023-03-24T14:07:51.979Z,0.80
2023-03-24T14:10:20.773Z,0.52
2023-03-24T14:12:54.492Z,0.68
2023-03-24T14:15:27.362Z,0.80
2023-03-24T14:17:56.568Z,0.75
2023-03-24T14:20:36.250Z,0.90
2023-03-24T14:23:04.504Z,0.60
2023-03-24T14:25:32.937Z,0.68
2023-03-24T14:28:21.619Z,0.90
2023-03-24T14:31:17.032Z,1.05
2023-03-24T14:34:02.110Z,0.68
2023-03-24T14:36:39.380Z,0.63
2023-03-24T14:39:19.985Z,0.90
2023-03-24T14:41:51.807Z,0.60
2023-03-24T14:44:51.370Z,1.00
2023-03-24T14:47:38.814Z,0.57
2023-03-24T14:50:21.622Z,0.70
2023-03-24T14:52:53.030Z,0.65
2023-03-24T14:55:21.801Z,0.82
2023-03-24T14:57:57.727Z,1.20
2023-03-24T15:01:06.614Z,0.68
2023-03-24T15:03:50.342Z,0.70
2023-03-24T15:06:23.363Z,0.80
2023-03-24T15:08:55.302Z,0.68
2023-03-24T15:11:26.092Z,0.80
2023-03-24T15:13:59.852Z,0.50
2023-03-24T15:16:32.029Z,2.78
2023-03-24T15:19:20.385Z,4.20
2023-03-24T15:22:02.597Z,8.40
2023-03-24T15:24:31.917Z,7.85
2023-03-24T15:27:07.714Z,8.23
2023-03-24T15:29:41.959Z,8.90
2023-03-24T15:32:21.201Z,9.65
2023-03-24T15:34:54.937Z,13.02
2023-03-24T15:37:25.759Z,18.00
2023-03-24T15:40:01.909Z,22.85
2023-03-24T15:42:41.848Z,22.92
2023-03-24T15:45:22.159Z,25.55
2023-03-24T15:47:51.933Z,25.15
2023-03-24T15:50:56.199Z,25.52
2023-03-24T15:53:44.850Z,26.92
2023-03-24T15:56:31.561Z,26.75
2023-03-24T15:59:04.020Z,28.15
2023-03-24T16:01:31.445Z,28.05
2023-03-24T16:04:01.255Z,29.38
2023-03-24T16:06:33.653Z,30.23
2023-03-24T16:09:02.187Z,29.65
2023-03-24T16:11:29.613Z,31.20
2023-03-24T16:13:57.733Z,30.80
2023-03-24T16:16:28.413Z,30.83
2023-03-24T16:18:56.926Z,31.88
2023-03-24T16:21:28.997Z,32.20
2023-03-24T16:23:57.742Z,33.42
2023-03-24T16:26:25.817Z,32.30
2023-03-24T16:28:54.076Z,31.25
2023-03-24T16:31:24.766Z,32.38
2023-03-24T16:33:52.366Z,31.90
2023-03-24T16:36:22.128Z,30.42
2023-03-24T16:38:52.190Z,31.58
2023-03-24T16:41:18.973Z,31.10
2023-03-24T16:43:46.091Z,30.27
2023-03-24T16:46:18.731Z,29.23
2023-03-24T16:48:45.630Z,28.80
2023-03-24T16:51:16.901Z,30.33
2023-03-24T16:53:45.310Z,28.60
2023-03-24T16:56:17.160Z,28.83
2023-03-24T16:58:45.385Z,28.50
2023-03-24T17:01:26.637Z,27.20
2023-03-24T17:04:02.420Z,27.38
2023-03-24T17:06:32.365Z,28.10
2023-03-24T17:08:59.612Z,26.73
2023-03-24T17:11:28.091Z,25.17
2023-03-24T17:13:57.277Z,24.67
2023-03-24T17:18:52.800Z,24.30
2023-03-24T17:21:20.106Z,24.00
2023-03-24T17:23:49.335Z,25.02
2023-03-24T17:26:16.975Z,22.83
2023-03-24T17:28:43.942Z,23.80
2023-03-24T17:31:10.865Z,22.25
2023-03-24T17:33:37.514Z,22.98
2023-03-24T17:36:04.849Z,23.17
2023-03-24T17:38:31.579Z,22.23
2023-03-24T17:41:03.157Z,21.95
2023-03-24T17:43:30.664Z,21.48
2023-03-24T17:45:58.390Z,21.52
2023-03-24T17:48:26.434Z,20.27
2023-03-24T17:50:53.803Z,20.35
2023-03-24T17:53:28.521Z,20.88
2023-03-24T17:55:58.534Z,21.45
2023-03-24T17:58:29.343Z,19.65
2023-03-24T18:00:58.477Z,20.38
2023-03-24T18:03:37.554Z,19.50
2023-03-24T18:06:12.026Z,18.85
2023-03-24T18:08:39.677Z,18.45
2023-03-24T18:11:11.644Z,17.83
2023-03-24T18:13:38.605Z,17.60
2023-03-24T18:16:20.012Z,17.70
2023-03-24T18:18:49.135Z,17.80
2023-03-24T18:21:16.120Z,17.45
2023-03-24T18:23:42.818Z,17.38
2023-03-24T18:26:09.712Z,16.25
2023-03-24T18:28:37.998Z,16.23
2023-03-24T18:31:20.135Z,15.33
2023-03-24T18:33:48.943Z,16.13
2023-03-24T18:36:21.366Z,15.07
2023-03-24T18:38:48.470Z,16.30
2023-03-24T18:41:16.791Z,15.45
2023-03-24T18:43:47.603Z,14.40
2023-03-24T18:46:14.880Z,14.38
2023-03-24T18:48:42.810Z,15.18
2023-03-24T18:51:10.060Z,14.68
2023-03-24T18:53:37.477Z,14.88
2023-03-24T18:56:05.999Z,13.52
2023-03-24T18:58:33.774Z,13.07
2023-03-24T19:01:07.015Z,13.35
2023-03-24T19:03:35.793Z,13.10
2023-03-24T19:06:06.315Z,12.90
2023-03-24T19:08:34.774Z,12.80
2023-03-24T19:11:01.621Z,12.73
2023-03-24T19:13:28.409Z,12.25
2023-03-24T19:15:55.317Z,12.23
2023-03-24T19:18:23.755Z,11.15
2023-03-24T19:20:55.956Z,11.02
2023-03-24T19:23:26.741Z,11.30
2023-03-24T19:25:55.148Z,11.15
2023-03-24T19:28:29.644Z,10.87
2023-03-24T19:30:58.151Z,11.15
2023-03-24T19:33:25.765Z,9.83
2023-03-24T19:35:53.188Z,10.02
2023-03-24T19:38:24.766Z,10.45
2023-03-24T19:40:53.895Z,9.55
2023-03-24T19:45:51.618Z,9.30
2023-03-24T19:48:19.331Z,8.45
2023-03-24T19:50:49.110Z,8.57
2023-03-24T19:53:16.088Z,8.70
2023-03-24T19:55:42.903Z,8.32
2023-03-24T19:58:09.814Z,8.10
2023-03-24T20:00:36.977Z,8.48
2023-03-24T20:03:03.780Z,7.55
2023-03-24T20:05:30.694Z,7.60
2023-03-24T20:07:59.734Z,7.25
2023-03-24T20:10:27.210Z,7.40
2023-03-24T20:12:54.751Z,7.18
2023-03-24T20:15:21.960Z,7.30
2023-03-24T20:17:48.904Z,7.32
2023-03-24T20:20:15.686Z,6.80
2023-03-24T20:22:45.598Z,6.80
2023-03-24T20:25:14.573Z,7.05
2023-03-24T20:27:41.481Z,6.28
2023-03-24T20:30:09.436Z,6.35
2023-03-24T20:32:37.006Z,6.85
2023-03-24T20:35:05.555Z,6.38
2023-03-24T20:37:35.575Z,6.40
2023-03-24T20:40:05.348Z,6.35
2023-03-24T20:42:33.115Z,6.00
2023-03-24T20:45:00.145Z,5.25
2023-03-24T20:47:26.879Z,5.57
2023-03-24T20:49:53.638Z,5.70
2023-03-24T20:52:20.780Z,5.45
2023-03-24T20:54:47.540Z,5.22
2023-03-24T20:57:14.370Z,5.25
2023-03-24T20:59:41.223Z,5.20
2023-03-24T21:02:09.959Z,5.38
2023-03-24T21:04:36.849Z,5.00
2023-03-24T21:07:03.689Z,4.82
2023-03-24T21:09:30.719Z,5.10
2023-03-24T21:11:57.520Z,5.05
2023-03-24T21:14:24.578Z,4.55
2023-03-24T21:16:51.672Z,4.70
2023-03-24T21:19:18.751Z,4.68
2023-03-24T21:21:49.451Z,4.10
2023-03-24T21:24:17.599Z,4.70
2023-03-24T21:26:46.207Z,3.67
2023-03-24T21:29:13.158Z,4.05
2023-03-24T21:31:41.757Z,3.90
2023-03-24T21:34:08.759Z,3.65
2023-03-24T21:36:38.533Z,3.17
2023-03-24T21:39:10.300Z,3.45
2023-03-24T21:41:39.013Z,3.33
2023-03-24T21:44:08.490Z,3.92
2023-03-24T21:46:36.774Z,3.67
2023-03-24T21:49:04.847Z,3.53
2023-03-24T21:51:36.807Z,3.55
2023-03-24T21:54:06.689Z,2.92
2023-03-24T21:56:34.972Z,3.40
2023-03-24T21:59:01.804Z,3.10
2023-03-24T22:01:28.789Z,3.03
2023-03-24T22:03:55.880Z,3.10
2023-03-24T22:06:23.097Z,3.17
2023-03-24T22:08:50.112Z,3.03
2023-03-24T22:11:19.053Z,3.03
2023-03-24T22:13:46.872Z,3.05
2023-03-24T22:16:14.441Z,3.10
2023-03-24T22:18:41.586Z,2.80
2023-03-24T22:21:10.636Z,2.63
2023-03-24T22:23:40.073Z,2.90
2023-03-24T22:26:10.753Z,2.40
2023-03-24T22:28:38.619Z,2.85
2023-03-24T22:31:10.805Z,2.40
2023-03-24T22:33:38.489Z,2.38
2023-03-24T22:36:06.280Z,2.75
2023-03-24T22:38:34.339Z,2.28
2023-03-24T22:41:06.776Z,2.53
2023-03-24T22:43:35.731Z,2.30
2023-03-24T22:46:03.715Z,2.30
2023-03-24T22:48:30.919Z,2.17
2023-03-24T22:50:57.663Z,2.53
2023-03-24T22:53:24.455Z,2.05
2023-03-24T22:55:51.692Z,1.90
2023-03-24T22:58:18.699Z,1.92
2023-03-24T23:00:48.602Z,2.22
2023-03-24T23:03:16.053Z,1.90
2023-03-24T23:05:46.427Z,1.83
2023-03-24T23:08:15.581Z,1.95
2023-03-24T23:13:11.808Z,1.90
2023-03-24T23:15:42.793Z,1.77
2023-03-24T23:18:10.883Z,1.92
2023-03-24T23:20:37.686Z,1.65
2023-03-24T23:23:06.770Z,1.77
2023-03-24T23:28:01.662Z,1.80
2023-03-24T23:30:28.482Z,1.65
2023-03-24T23:32:57.396Z,1.70
2023-03-24T23:35:24.182Z,1.58
2023-03-24T23:37:50.811Z,1.40
2023-03-24T23:40:18.036Z,1.30
2023-03-24T23:42:46.850Z,1.50
2023-03-24T23:45:18.196Z,1.20
2023-03-24T23:47:47.526Z,1.45
2023-03-24T23:50:17.387Z,1.20
2023-03-24T23:52:44.065Z,1.20
2023-03-24T23:55:13.495Z,1.30
